Latest Coastal Weather Observations for Northern Endeavour (near 10.5S 126E)

IDD60701

Issued at 4:11 am CST Tuesday 19 December 2017 (issued every 10 minutes, with the page automatically refreshed every 10 minutes)

About coastal observations | Map of coastal stations | Coastal observations for NT | Marine services | Other Formats
Station Details ID: 200212 Name: NORTHERN ENDEAVOUR Lat: -10.61 Lon: 125.98 Height: 16.0 m
Data from the previous 72 hours. | See also: Recent months for locations in Northern Territory
Date/Time
CST
Temp
°C
Wind Pressure Rain since
9am
mm
Weather Cloud Vis
km
Sea
Height
m
Swell
Dir  Spd
kts
Gust
kts
hPa Trend Height
m
Period
s
Dir
19/04:10am 29.4 ENE 3 4 1007.2 - - - - 10 - - - -
19/04:00am 29.4 NE 2 3 1007.1 - - - - 10 - - - -
19/03:50am 29.4 N 3 3 1007.0 - - - - 10 - - - -
19/03:40am 29.5 NNE 3 5 1007.1 - - - - 10 - - - -
19/03:30am 29.4 NNE 4 5 1007.2 - - - - 10 - - - -
19/03:20am 29.4 N 4 4 1007.2 - - - - 10 - - - -
19/03:10am 29.4 NNE 3 4 1007.4 - - - - 10 - - - -
19/03:00am 29.4 NNE 3 4 1007.4 - - - - 10 - - - -
19/02:50am 29.4 NE 3 2 1007.4 - - - - 10 - - - -
19/02:40am 29.5 NE 4 4 1007.4 - - - - 10 - - - -
19/02:30am 29.5 ENE 3 4 1007.6 - - - - 10 - - - -
19/02:20am 29.5 ENE 2 4 1007.7 - - - - 10 - - - -
19/02:10am 29.6 NE 3 5 1007.8 - - - - 10 - - - -
19/02:00am 29.5 NNE 3 3 1007.8 - - - - 10 - - - -
19/01:50am 29.5 NNE 3 4 1007.9 - - - - 10 - - - -
19/01:40am 29.6 NE 3 3 1008.1 - - - - 10 - - - -
19/01:30am 29.6 NE 3 3 1008.2 - - - - 10 - - - -
19/01:20am 29.6 NE 4 4 1008.1 - - - - 10 - - - -
19/01:10am 29.6 NE 4 4 1008.2 - - - - 10 - - - -
19/01:00am 29.7 ENE 3 5 1008.3 - - - - 10 - - - -
19/12:50am 29.6 ENE 4 5 1008.4 - - - - 10 - - - -
19/12:40am 29.7 E 4 4 1008.5 - - - - 10 - - - -
19/12:30am 29.8 E 3 5 1008.5 - - - - 10 - - - -
19/12:20am 29.8 E 4 6 1008.6 - - - - 10 - - - -
19/12:10am 29.8 NE 4 6 1008.6 - - - - 10 - - - -
19/12:00am 29.9 NE 5 6 1008.5 - - - - 10 - - - -
 
Date/Time
CST
Temp
°C
Wind Pressure Rain since
9am
mm
Weather Cloud Vis
km
Sea
Height
m
Swell
Dir  Spd
kts
Gust
kts
hPa Trend Height
m
Period
s
Dir
18/11:50pm 29.8 NE 6 8 1008.5 - - - - 10 - - - -
18/11:40pm 29.8 NE 6 9 1008.4 - - - - 10 - - - -
18/11:30pm 29.8 ENE 6 8 1008.5 - - - - 10 - - - -
18/11:20pm 29.8 ENE 5 6 1008.4 - - - - 10 - - - -
18/11:10pm 29.8 ENE 4 7 1008.6 - - - - 10 - - - -
18/11:00pm 29.8 E 4 6 1008.5 - - - - 10 - - - -
18/10:50pm 30.0 ENE 4 6 1008.6 - - - - 10 - - - -
18/10:40pm 29.9 ENE 3 3 1008.6 - - - - 10 - - - -
18/10:30pm 29.8 E 3 4 1008.6 - - - - 10 - - - -
18/10:20pm 29.8 E 4 5 1008.5 - - - - 10 - - - -
18/10:10pm 29.8 E 4 5 1008.3 - - - - 10 - - - -
18/10:00pm 29.8 ESE 5 5 1008.2 - - - - 10 - - - -
18/09:50pm 29.7 ESE 6 6 1008.1 - - - - 10 - - - -
18/09:40pm 29.7 ESE 6 7 1008.1 - - - - 10 - - - -
18/09:30pm 29.8 ESE 7 7 1008.0 - - - - 10 - - - -
18/09:20pm 29.7 ESE 8 8 1007.8 - - - Partly cloudy 10 - - - -
18/09:10pm 29.7 ESE 8 8 1007.8 - - - Partly cloudy 10 - - - -
18/09:00pm 29.6 ESE 8 9 1007.6 - - - Partly cloudy 10 - - - -
18/08:50pm 29.8 ESE 5 10 1007.5 - - - Partly cloudy 10 - - - -
18/08:40pm 29.7 SE 5 9 1007.5 - - - Partly cloudy 10 - - - -
18/08:30pm 29.7 SE 4 6 1007.5 - - - Partly cloudy 10 - - - -
18/08:20pm 29.7 SE 5 6 1007.4 - - - Partly cloudy 10 - - - -
18/08:10pm 29.7 SE 6 9 1007.3 - - - Partly cloudy 10 - - - -
18/08:00pm 29.7 SE 7 9 1007.1 - - - Partly cloudy 10 - - - -
18/07:50pm 29.6 SE 6 9 1006.9 - - - Partly cloudy 10 - - - -
18/07:40pm 29.9 ESE 5 7 1006.8 - - - Partly cloudy 10 - - - -
18/07:30pm 30.2 E 6 8 1006.6 - - - Partly cloudy 10 - - - -
18/07:20pm 30.3 E 6 8 1006.5 - - - Partly cloudy 10 - - - -
18/07:10pm 30.5 ENE 5 8 1006.4 - - - Partly cloudy 10 - - - -
18/07:00pm 30.3 E 10 9 1006.3 - - - Partly cloudy 10 - - - -
18/06:50pm 30.1 E 15 15 1006.0 - - - Partly cloudy 10 - - - -
18/06:40pm 29.5 E 19 18 1006.0 - - - Partly cloudy 10 - - - -
18/06:30pm 29.5 E 21 23 1005.9 - - - Partly cloudy 10 - - - -
18/06:20pm 29.2 ENE 20 26 1006.2 - - - Partly cloudy 10 - - - -
18/06:10pm 28.8 NNE 7 14 1006.0 - - - Partly cloudy 10 - - - -
18/06:00pm 32.4 NNW 3 4 1006.0 - - - Partly cloudy 10 - - - -
18/05:50pm 33.4 WNW 3 4 1006.0 - - - Partly cloudy 10 - - - -
18/05:40pm 32.6 W 4 6 1005.8 - - - Partly cloudy 10 - - - -
18/05:30pm 32.0 WNW 5 5 1005.9 - - - Partly cloudy 10 - - - -
18/05:20pm 31.8 WNW 6 8 1005.9 - - - Partly cloudy 10 - - - -
18/05:10pm 31.4 WNW 7 10 1005.9 - - - Partly cloudy 10 - - - -
18/05:00pm 31.5 WNW 8 9 1006.0 - - - Partly cloudy 10 - - - -
18/04:50pm 31.7 W 10 10 1005.9 - - - Partly cloudy 10 - - - -
18/04:40pm 31.6 W 10 12 1005.8 - - - - 10 - - - -
18/04:30pm 32.1 W 5 7 1005.7 - - - - 10 - - - -
18/04:20pm 31.7 W 4 5 1005.9 - - - - 10 - - - -
18/04:10pm 32.3 W 4 4 1006.1 - - - - 10 - - - -
18/04:00pm 32.2 W 5 7 1006.1 - - - - 10 - - - -
18/03:50pm 32.4 W 4 3 1006.2 - - - - 10 - - - -
18/03:40pm 32.0 W 5 6 1006.2 - - - Partly cloudy 10 - - - -
18/03:30pm 32.2 W 5 11 1006.3 - - - Partly cloudy 10 - - - -
18/03:20pm 32.2 W 6 7 1006.4 - - - Partly cloudy 10 - - - -
18/03:10pm 31.6 W 7 9 1006.5 - - - Partly cloudy 10 - - - -
18/03:00pm 32.0 WNW 7 8 1006.5 - - - Partly cloudy 10 - - - -
18/02:50pm 31.6 WNW 7 7 1006.6 - - - Partly cloudy 10 - - - -
18/02:40pm 31.1 WNW 7 8 1006.8 - - - Partly cloudy 10 - - - -
18/02:30pm 29.8 NW 8 8 1006.9 - - - Partly cloudy 10 - - - -
18/02:20pm 30.0 NW 10 10 1006.9 - - - Partly cloudy 10 - - - -
18/02:10pm 28.9 NNW 10 11 1007.0 - - - Partly cloudy 10 - - - -
18/02:00pm 28.9 NNE 8 9 1007.0 - - - Partly cloudy 10 - - - -
18/01:50pm 28.9 NNE 9 11 1007.0 - - - Partly cloudy 10 - - - -
18/01:40pm 29.6 E 5 11 1007.1 - - - Partly cloudy 10 - - - -
18/01:30pm 30.6 SSE 6 6 1007.2 - - - Partly cloudy 10 - - - -
18/01:20pm 30.4 SSE 5 8 1007.4 - - - Partly cloudy 10 - - - -
18/01:10pm 31.4 S 4 5 1007.4 - - - Partly cloudy 10 - - - -
18/01:00pm 31.1 SSE 5 6 1007.6 - - - Partly cloudy 10 - - - -
18/12:50pm 31.7 S 5 6 1007.7 - - - Partly cloudy 10 - - - -
18/12:40pm 33.0 S 5 6 1007.9 - - - Partly cloudy 10 - - - -
18/12:30pm 33.1 S 5 7 1007.9 - - - Partly cloudy 10 - - - -
18/12:20pm 32.1 SSE 4 6 1008.0 - - - Partly cloudy 10 - - - -
18/12:10pm 31.7 SSE 3 6 1008.0 - - - Partly cloudy 10 - - - -
18/12:00pm 32.1 SSE 3 5 1008.1 - - - Partly cloudy 10 - - - -
18/11:50am 31.5 SSE 3 5 1008.1 - - - Partly cloudy 10 - - - -
18/11:40am 31.8 SSE 4 5 1008.3 - - - Partly cloudy 10 - - - -
18/11:30am 32.9 SSE 2 5 1008.4 - - - Partly cloudy 10 - - - -
18/11:20am 34.5 S 3 2 1008.6 - - - Partly cloudy 10 - - - -
18/11:10am 33.9 S 4 4 1008.6 - - - Partly cloudy 10 - - - -
18/11:00am 33.4 S 3 5 1008.7 - - - Partly cloudy 10 - - - -
18/10:50am 32.7 SSE 2 5 1008.8 - - - Partly cloudy 10 - - - -
18/10:40am 32.5 SSE 2 4 1008.7 - - - Partly cloudy 10 - - - -
18/10:30am 31.7 S 2 2 1008.6 - - - - 10 - - - -
18/10:20am 32.2 S 3 4 1008.5 - - - - 10 - - - -
18/10:10am 32.8 S 2 4 1008.4 - - - Partly cloudy 10 - - - -
18/10:00am 32.8 SSW 3 4 1008.5 - - - Partly cloudy 10 - - - -
18/09:50am 33.4 SSW 4 4 1008.5 - - - Partly cloudy 10 - - - -
18/09:40am 32.5 S 3 4 1008.5 - - - Partly cloudy 10 - - - -
18/09:30am 32.0 S 4 4 1008.4 - - - Partly cloudy 10 - - - -
18/09:20am 31.0 S 3 5 1008.4 - - - - 10 - - - -
18/09:10am 31.5 S 3 5 1008.3 - - - - 10 - - - -
18/09:00am 31.7 SSE 2 3 1008.1 - - - - 10 - - - -
18/08:50am 31.8 SSE 2 5 1008.1 - - - - 10 - - - -
18/08:40am 31.7 S 1 3 1008.2 - - - - 10 - - - -
18/08:30am 32.3 W 1 1 1008.0 - - - - 10 - - - -
18/08:20am 31.6 SSE 2 2 1007.9 - - - - 10 - - - -
18/08:10am 31.2 SSE 3 3 1007.7 - - - - 10 - - - -
18/08:00am 30.6 S 3 5 1007.7 - - - - 10 - - - -
18/07:50am 30.1 S 3 4 1007.5 - - - - 10 - - - -
18/07:40am 30.0 SSE 2 2 1007.5 - - - - 10 - - - -
18/07:30am 29.6 SSW 2 3 1007.3 - - - - 10 - - - -
18/07:20am 29.7 SSW 2 5 1007.3 - - - Partly cloudy 10 - - - -
18/07:10am 29.7 SE 1 2 1007.1 - - - Partly cloudy 10 - - - -
18/07:00am 29.6 SSE 2 2 1006.8 - - - Partly cloudy 10 - - - -
18/06:50am 29.4 SSW 2 3 1006.7 - - - Partly cloudy 10 - - - -
18/06:40am 29.3 NW 1 1 1006.8 - - - - 10 - - - -
18/06:30am 29.3 WNW 1 1 1006.7 - - - - 10 - - - -
18/06:20am 29.3 W 1 2 1006.7 - - - - 10 - - - -
18/06:10am 29.4 SSW 2 2 1006.7 - - - - 10 - - - -
18/06:00am 29.4 SSW 3 3 1006.6 - - - - 10 - - - -
18/05:50am 29.4 SW 2 3 1006.6 - - - - 10 - - - -
18/05:40am 29.4 WSW 3 4 1006.6 - - - - 10 - - - -
18/05:30am 29.4 SW 3 3 1006.6 - - - - 10 - - - -
18/05:20am 29.5 SW 5 5 1006.5 - - - Partly cloudy 10 - - - -
18/05:10am 29.5 SW 4 4 1006.5 - - - Partly cloudy 10 - - - -
18/05:00am 29.4 WSW 4 4 1006.6 - - - Partly cloudy 10 - - - -
18/04:50am 29.4 W 4 4 1006.6 - - - Partly cloudy 10 - - - -
18/04:40am 29.4 WSW 4 5 1006.6 - - - Partly cloudy 10 - - - -
18/04:30am 29.6 SW 5 5 1006.5 - - - Partly cloudy 10 - - - -
18/04:20am 29.6 SW 5 6 1006.5 - - - Partly cloudy 10 - - - -
18/04:10am 29.5 WSW 6 6 1006.6 - - - Partly cloudy 10 - - - -
18/04:00am 29.5 WSW 5 6 1006.8 - - - Partly cloudy 10 - - - -
18/03:50am 29.5 WSW 3 4 1006.8 - - - Partly cloudy 10 - - - -
18/03:40am 29.6 WSW 4 4 1006.9 - - - Partly cloudy 10 - - - -
18/03:30am 29.6 WSW 5 6 1007.1 - - - Partly cloudy 10 - - - -
18/03:20am 29.7 SW 4 4 1007.0 - - - - 10 - - - -
18/03:10am 29.8 SW 5 5 1007.0 - - - - 10 - - - -
18/03:00am 29.7 SW 3 5 1007.2 - - - Partly cloudy 10 - - - -
18/02:50am 29.4 SE 2 3 1007.3 - - - Partly cloudy 10 - - - -
18/02:40am 29.3 ESE 4 4 1007.4 - - - Partly cloudy 10 - - - -
18/02:30am 29.6 S 4 4 1007.6 - - - Partly cloudy 10 - - - -
18/02:20am 29.7 SSW 6 5 1007.6 - - - Partly cloudy 10 - - - -
18/02:10am 29.6 S 7 9 1007.7 - - - Partly cloudy 10 - - - -
18/02:00am 29.9 SW 5 5 1008.0 - - - Partly cloudy 10 - - - -
18/01:50am 29.9 WSW 6 7 1008.1 - - - Partly cloudy 10 - - - -
18/01:40am 29.9 WSW 6 7 1008.1 - - - - 10 - - - -
18/01:30am 30.0 WSW 6 6 1008.4 - - - Partly cloudy 10 - - - -
18/01:20am 30.0 SW 6 7 1008.5 - - - - 10 - - - -
18/01:10am 30.0 WSW 6 9 1008.6 - - - - 10 - - - -
18/01:00am 30.1 SW 6 7 1008.8 - - - - 10 - - - -
18/12:50am 30.0 SW 6 6 1008.8 - - - - 10 - - - -
18/12:40am 30.1 SW 6 7 1008.8 - - - Partly cloudy 10 - - - -
18/12:30am 30.1 SW 6 8 1008.8 - - - Partly cloudy 10 - - - -
18/12:20am 30.1 SW 5 8 1008.9 - - - Partly cloudy 10 - - - -
18/12:10am 30.1 SW 5 7 1008.9 - - - Partly cloudy 10 - - - -
18/12:00am 30.0 SW 5 7 1008.9 - - - Partly cloudy 10 - - - -
 
Date/Time
CST
Temp
°C
Wind Pressure Rain since
9am
mm
Weather Cloud Vis
km
Sea
Height
m
Swell
Dir  Spd
kts
Gust
kts
hPa Trend Height
m
Period
s
Dir
17/11:50pm 30.1 SSW 5 5 1008.8 - - - - 10 - - - -
17/11:40pm 30.1 SSW 4 4 1008.8 - - - - 10 - - - -
17/11:30pm 30.1 SW 5 5 1008.6 - - - - 10 - - - -
17/11:20pm 30.1 SSW 6 6 1008.5 - - - Partly cloudy 10 - - - -
17/11:10pm 30.1 SSW 5 6 1008.5 - - - Partly cloudy 10 - - - -
17/11:00pm 30.1 SW 6 7 1008.4 - - - Partly cloudy 10 - - - -
17/10:50pm 30.0 SW 4 6 1008.4 - - - Partly cloudy 10 - - - -
17/10:40pm 30.1 SW 5 7 1008.3 - - - - 10 - - - -
17/10:30pm 30.1 SW 5 6 1008.3 - - - - 10 - - - -
17/10:20pm 30.1 SSW 6 7 1008.2 - - - - 10 - - - -
17/10:10pm 30.1 SSW 6 6 1008.2 - - - - 10 - - - -
17/10:00pm 30.1 SW 5 6 1008.1 - - - - 10 - - - -
17/09:50pm 30.1 SW 5 7 1008.0 - - - - 10 - - - -
17/09:40pm 30.1 SSW 6 8 1007.9 - - - - 10 - - - -
17/09:30pm 30.1 SSW 6 6 1007.9 - - - - 10 - - - -
17/09:20pm 30.1 SW 7 7 1007.7 - - - - 10 - - - -
17/09:10pm 30.2 SW 7 8 1007.6 - - - - 10 - - - -
17/09:00pm 30.2 SSW 7 10 1007.5 - - - - 10 - - - -
17/08:50pm 30.1 SW 7 10 1007.3 - - - - 10 - - - -
17/08:40pm 30.1 SW 7 9 1007.2 - - - - 10 - - - -
17/08:30pm 30.2 SW 6 6 1007.0 - - - - 10 - - - -
17/08:20pm 30.1 SW 6 9 1007.0 - - - - 10 - - - -
17/08:10pm 30.1 WSW 6 8 1006.9 - - - - 10 - - - -
17/08:00pm 30.1 WSW 6 7 1006.8 - - - - 10 - - - -
17/07:50pm 30.1 WSW 6 8 1006.7 - - - - 10 - - - -
17/07:40pm 30.1 WSW 7 10 1006.6 - - - - 10 - - - -
17/07:30pm 30.1 WSW 8 9 1006.7 - - - Partly cloudy 10 - - - -
17/07:20pm 30.1 WSW 8 9 1006.6 - - - Partly cloudy 10 - - - -
17/07:10pm 30.2 WSW 8 10 1006.5 - - - Partly cloudy 10 - - - -
17/07:00pm 30.4 W 7 9 1006.5 - - - Partly cloudy 10 - - - -
17/06:50pm 30.5 W 6 8 1006.3 - - - - 10 - - - -
17/06:40pm 30.6 W 6 8 1006.4 - - - - 10 - - - -
17/06:30pm 30.6 W 5 7 1006.4 - - - - 10 - - - -
17/06:20pm 30.8 W 6 8 1006.4 - - - - 10 - - - -
17/06:10pm 30.9 W 7 10 1006.4 - - - - 10 - - - -
17/06:00pm 30.6 WSW 6 9 1006.4 - - - - 10 - - - -
17/05:50pm 30.6 WSW 5 7 1006.4 - - - Partly cloudy 10 - - - -
17/05:40pm 30.7 WSW 5 4 1006.4 - - - Partly cloudy 10 - - - -
17/05:30pm 31.1 WSW 6 6 1006.4 - - - Partly cloudy 10 - - - -
17/05:20pm 31.4 WSW 5 8 1006.5 - - - Partly cloudy 10 - - - -
17/05:10pm 31.2 SW 5 4 1006.5 - - - - 10 - - - -
17/05:00pm 31.7 SW 5 6 1006.5 - - - - 10 - - - -
17/04:50pm 31.0 SSW 4 6 1006.5 - - - - 10 - - - -
17/04:40pm 30.7 SSW 5 4 1006.4 - - - - 10 - - - -
17/04:30pm 31.9 SW 4 6 1006.5 - - - Partly cloudy 10 - - - -
17/04:20pm 30.7 SSW 4 3 1006.6 - - - Partly cloudy 10 - - - -
17/04:10pm 30.9 SSW 4 6 1006.6 - - - Partly cloudy 10 - - - -
17/04:00pm 30.9 SSW 4 5 1006.6 - - - - 1 - - - -
17/03:50pm 31.8 SSW 5 7 1006.7 - - - - 10 - - - -
17/03:40pm 31.9 SSW 5 6 1006.6 - - - - 10 - - - -
17/03:30pm 30.8 S 2 5 1006.7 - - - - 10 - - - -
17/03:20pm 33.0 SSW 3 5 1006.8 - - - - 10 - - - -
17/03:10pm 31.6 SSW 4 5 1006.9 - - - - 10 - - - -
17/03:00pm 32.8 SW 3 5 1007.1 - - - Partly cloudy 10 - - - -
17/02:50pm 32.9 WSW 4 5 1007.2 - - - - 10 - - - -
17/02:40pm 32.3 WSW 4 6 1007.3 - - - - 10 - - - -
17/02:30pm 32.7 SW 3 4 1007.4 - - - - 10 - - - -
17/02:20pm 33.8 WSW 4 3 1007.5 - - - Partly cloudy 10 - - - -
17/02:10pm 33.8 WSW 4 5 1007.7 - - - Partly cloudy 10 - - - -
17/02:00pm 33.5 WSW 4 6 1007.9 - - - Partly cloudy 10 - - - -
17/01:50pm 34.3 WSW 4 6 1008.0 - - - Partly cloudy 10 - - - -
17/01:40pm 34.5 WSW 3 5 1008.1 - - - Partly cloudy 10 - - - -
17/01:30pm 33.5 WNW 3 3 1008.3 - - - Partly cloudy 10 - - - -
17/01:20pm 33.4 W 4 5 1008.4 - - - Partly cloudy 10 - - - -
17/01:10pm 33.4 W 3 5 1008.5 - - - Partly cloudy 10 - - - -
17/01:00pm 33.9 WSW 3 4 1008.7 - - - - 10 - - - -
17/12:50pm 32.3 W 2 4 1008.8 - - - - 10 - - - -
17/12:40pm 31.9 SSW 1 1 1008.9 - - - - 10 - - - -
17/12:30pm 30.8 SSW 2 3 1008.9 - - - - 10 - - - -
17/12:20pm 30.9 SW 2 4 1009.0 - - - - 10 - - - -
17/12:10pm 31.9 SW 3 2 1009.1 - - - - 10 - - - -
17/12:00pm 31.1 SW 3 3 1009.1 - - - Partly cloudy 10 - - - -
17/11:50am 31.0 SSW 3 4 1009.2 - - - Partly cloudy 10 - - - -
17/11:40am 31.8 S 2 2 1009.2 - - - Partly cloudy 10 - - - -
17/11:30am 31.8 S 2 3 1009.3 - - - - 10 - - - -
17/11:20am 33.4 SW 3 3 1009.4 - - - - 10 - - - -
17/11:10am 33.3 SSW 3 5 1009.4 - - - - 10 - - - -
17/11:00am 32.7 SSW 3 4 1009.5 - - - - 10 - - - -
17/10:50am 32.9 WSW 3 4 1009.6 - - - Partly cloudy 10 - - - -
17/10:40am 33.4 SSW 3 3 1009.6 - - - - 10 - - - -
17/10:30am 33.0 SSW 2 4 1009.7 - - - - 10 - - - -
17/10:20am 32.6 SW 3 4 1009.6 - - - - 9 - - - -
17/10:10am 33.2 S 3 4 1009.6 - - - - 10 - - - -
17/10:00am 32.9 SSW 3 5 1009.6 - - - - 10 - - - -
17/09:50am 32.6 SW 4 5 1009.5 - - - - 10 - - - -
17/09:40am 32.6 S 4 5 1009.4 - - - - 10 - - - -
17/09:30am 33.0 S 4 8 1009.3 - - - - 10 - - - -
17/09:20am 32.4 SSW 4 5 1009.2 - - - - 10 - - - -
17/09:10am 32.3 SSW 3 4 1009.1 - - - - 10 - - - -
17/09:00am 31.8 SW 4 4 1009.1 - - - - 8 - - - -
17/08:50am 32.8 S 3 4 1009.1 - - - - 10 - - - -
17/08:40am 32.5 S 3 4 1009.1 - - - - 10 - - - -
17/08:30am 32.3 S 3 1 1009.1 - - - - 10 - - - -
17/08:20am 31.7 S 3 5 1009.1 - - - - 10 - - - -
17/08:10am 32.2 S 3 5 1008.9 - - - Partly cloudy 10 - - - -
17/08:00am 31.9 S 3 5 1008.9 - - - Partly cloudy 10 - - - -
17/07:50am 31.8 SW 1 2 1009.0 - - - Partly cloudy 10 - - - -
17/07:40am 31.6 SSW 2 2 1008.9 - - - Partly cloudy 10 - - - -
17/07:30am 30.9 S 3 4 1008.7 - - - - 10 - - - -
17/07:20am 31.0 SW 4 4 1008.7 - - - - 10 - - - -
17/07:10am 30.2 SW 3 4 1008.5 - - - - 10 - - - -
17/07:00am 29.8 SW 5 5 1008.4 - - - - 10 - - - -
17/06:50am 29.4 SW 4 6 1008.2 - - - - 10 - - - -
17/06:40am 29.3 SW 5 4 1008.1 - - - - 10 - - - -
17/06:30am 29.3 WSW 5 5 1008.1 - - - - 10 - - - -
17/06:20am 29.3 WSW 6 5 1008.0 - - - - 10 - - - -
17/06:10am 29.3 WSW 5 5 1008.0 - - - - 10 - - - -
17/06:00am 29.3 W 5 6 1007.9 - - - - 10 - - - -
17/05:50am 29.3 W 4 5 1007.8 - - - - 10 - - - -
17/05:40am 29.3 W 4 6 1007.8 - - - - 10 - - - -
17/05:30am 29.3 W 5 7 1007.7 - - - - 10 - - - -
17/05:20am 29.3 WSW 5 9 1007.7 - - - - 10 - - - -
17/05:10am 29.2 SW 4 6 1007.7 - - - - 10 - - - -
17/05:00am 29.3 SW 4 3 1007.8 - - - - 10 - - - -
17/04:50am 29.1 WSW 5 7 1007.8 - - - - 10 - - - -
17/04:40am 29.1 WSW 4 4 1007.9 - - - - 10 - - - -
17/04:30am 29.3 W 3 4 1007.9 - - - - 10 - - - -
17/04:20am 29.0 W 3 3 1007.8 - - - - 10 - - - -
17/04:10am 29.0 WSW 4 4 1007.8 - - - - 10 - - - -
17/04:00am 29.3 WSW 3 4 1007.7 - - - - 10 - - - -
17/03:50am 29.1 WSW 3 4 1007.7 - - - - 10 - - - -
17/03:40am 29.0 W 3 3 1007.6 - - - - 10 - - - -
17/03:30am 29.1 W 3 4 1007.7 - - - - 10 - - - -
17/03:20am 29.1 W 2 3 1007.8 - - - - 10 - - - -
17/03:10am 29.0 W 3 3 1007.8 - - - - 10 - - - -
17/03:00am 29.2 W 3 4 1007.8 - - - - 10 - - - -
17/02:50am 29.3 WSW 4 4 1008.0 - - - - 10 - - - -
17/02:40am 29.3 SW 4 5 1008.0 - - - - 10 - - - -
17/02:30am 29.3 SW 4 5 1008.2 - - - - 10 - - - -
17/02:20am 28.8 SSW 5 6 1008.1 - - - - 10 - - - -
17/02:10am 28.6 S 7 6 1007.9 - - - - 10 - - - -
17/02:00am 28.6 S 11 10 1008.0 - - - - 10 - - - -
17/01:50am 28.1 S 5 16 1008.1 - - - Partly cloudy 10 - - - -
17/01:40am 29.2 SSW 3 3 1008.3 - - - Partly cloudy 10 - - - -
17/01:30am 29.0 SSW 6 5 1008.4 - - - Partly cloudy 10 - - - -
17/01:20am 28.8 S 8 8 1008.5 - - - Partly cloudy 10 - - - -
17/01:10am 28.0 S 6 9 1008.5 - - - Partly cloudy 10 - - - -
17/01:00am 29.1 SW 5 6 1008.7 - - - Partly cloudy 10 - - - -
17/12:50am 29.6 WSW 6 6 1008.8 - - - Partly cloudy 2 - - - -
17/12:40am 29.8 WSW 5 5 1008.9 - - - Partly cloudy 10 - - - -
17/12:30am 29.8 WSW 5 4 1008.9 - - - Partly cloudy 10 - - - -
17/12:20am 29.8 SW 4 6 1009.0 - - - Partly cloudy 10 - - - -
17/12:10am 29.8 WSW 4 5 1009.1 - - - Partly cloudy 10 - - - -
17/12:00am 29.9 WSW 4 5 1009.3 - - - Partly cloudy 10 - - - -
 
Date/Time
CST
Temp
°C
Wind Pressure Rain since
9am
mm
Weather Cloud Vis
km
Sea
Height
m
Swell
Dir  Spd
kts
Gust
kts
hPa Trend Height
m
Period
s
Dir
16/11:50pm 29.9 SW 3 4 1009.4 - - - Partly cloudy 10 - - - -
16/11:40pm 29.9 SW 5 4 1009.4 - - - Partly cloudy 10 - - - -
16/11:30pm 29.9 SW 4 7 1009.4 - - - Partly cloudy 10 - - - -
16/11:20pm 29.9 WSW 4 5 1009.3 - - - Partly cloudy 10 - - - -
16/11:10pm 29.9 SSW 3 4 1009.2 - - - Partly cloudy 10 - - - -
16/11:00pm 29.8 S 3 4 1009.1 - - - Partly cloudy 10 - - - -
16/10:50pm 29.9 S 4 4 1009.1 - - - - 10 - - - -
16/10:40pm 29.9 S 5 6 1009.0 - - - - 10 - - - -
16/10:30pm 29.9 SSW 5 6 1009.1 - - - - 10 - - - -
16/10:20pm 29.9 S 5 6 1009.1 - - - - 10 - - - -
16/10:10pm 29.9 S 5 7 1009.1 - - - Partly cloudy 10 - - - -
16/10:00pm 29.9 S 6 7 1009.0 - - - Partly cloudy 10 - - - -
16/09:50pm 30.0 SSW 5 8 1008.8 - - - Partly cloudy 10 - - - -
16/09:40pm 30.2 S 6 5 1008.7 - - - Partly cloudy 10 - - - -
16/09:30pm 30.2 S 4 7 1008.6 - - - Partly cloudy 10 - - - -
16/09:20pm 30.2 S 5 10 1008.5 - - - Partly cloudy 10 - - - -
16/09:10pm 30.2 SSW 4 7 1008.2 - - - Partly cloudy 10 - - - -
16/09:00pm 30.2 S 6 6 1008.0 - - - Partly cloudy 10 - - - -
16/08:50pm 30.3 S 5 9 1007.9 - - - - 10 - - - -
16/08:40pm 30.4 SSW 3 5 1007.7 - - - - 10 - - - -
16/08:30pm 30.5 SSW 5 5 1007.7 - - - - 10 - - - -
16/08:20pm 30.5 S 5 7 1007.6 - - - - 10 - - - -
16/08:10pm 30.6 SSW 5 3 1007.5 - - - - 10 - - - -
16/08:00pm 30.5 SW 5 6 1007.5 - - - - 10 - - - -
16/07:50pm 30.7 S 3 5 1007.3 - - - - 10 - - - -
16/07:40pm 30.5 SW 5 5 1007.3 - - - - 10 - - - -
16/07:30pm 30.6 SW 3 4 1007.2 - - - - 10 - - - -
16/07:20pm 30.7 SW 3 3 1007.2 - - - - 10 - - - -
16/07:10pm 30.7 SW 3 4 1006.9 - - - - 10 - - - -
16/07:00pm 31.3 SSW 3 4 1006.8 - - - - 10 - - - -
16/06:50pm 31.4 SW 2 4 1006.7 - - - - 10 - - - -
16/06:40pm 30.7 WSW 2 2 1006.5 - - - - 10 - - - -
16/06:30pm 30.8 WSW 2 2 1006.4 - - - - 10 - - - -
16/06:20pm 31.9 SW 2 2 1006.4 - - - - 10 - - - -
16/06:10pm 32.1 W 1 2 1006.2 - - - - 10 - - - -
16/06:00pm 32.9 SSW 1 2 1006.1 - - - - 10 - - - -
16/05:50pm 33.2 S 2 2 1006.2 - - - - 10 - - - -
16/05:40pm 32.6 WSW 1 5 1006.2 - - - - 10 - - - -
16/05:30pm 32.7 W 2 2 1006.2 - - - - 10 - - - -
16/05:20pm 32.6 W 2 3 1006.3 - - - - 10 - - - -
16/05:10pm 31.8 WSW 2 3 1006.2 - - - - 10 - - - -
16/05:00pm 32.9 W 1 2 1006.3 - - - - 10 - - - -
16/04:50pm 31.0 S 1 3 1006.3 - - - - 10 - - - -
16/04:40pm 31.9 S 2 2 1006.3 - - - - 10 - - - -
16/04:30pm 32.3 SSW 2 4 1006.4 - - - - 10 - - - -
16/04:20pm 32.9 S 3 3 1006.5 - - - - 10 - - - -
16/04:10pm 33.2 WSW 3 4 1006.6 - - - - 10 - - - -
16/04:00pm 32.3 SW 3 4 1006.7 - - - - 10 - - - -
16/03:50pm 33.4 WSW 3 4 1006.6 - - - - 10 - - - -
16/03:40pm 33.7 WSW 4 4 1006.7 - - - Partly cloudy 10 - - - -
16/03:30pm 33.9 SW 5 6 1006.8 - - - - 10 - - - -
16/03:20pm 33.9 WSW 4 5 1006.8 - - - Partly cloudy 10 - - - -
16/03:10pm 32.3 SW 2 4 1006.9 - - - - 10 - - - -
16/03:00pm 33.2 SW 3 3 1007.0 - - - - 10 - - - -
16/02:50pm 33.8 SW 4 6 1007.1 - - - - 10 - - - -
16/02:40pm 32.8 SW 3 6 1007.3 - - - - 10 - - - -
16/02:30pm 31.6 SSW 4 5 1007.4 - - - - 10 - - - -
16/02:20pm 31.5 S 4 4 1007.5 - - - - 10 - - - -
16/02:10pm 31.1 S 4 4 1007.7 - - - - 10 - - - -
16/02:00pm 31.9 SSW 5 7 1007.8 - - - Partly cloudy 10 - - - -
16/01:50pm 31.9 SSW 4 5 1008.0 - - - Partly cloudy 10 - - - -
16/01:40pm 32.8 SSW 3 5 1008.0 - - - - 10 - - - -
16/01:30pm 31.7 SSW 4 5 1008.1 - - - Partly cloudy 10 - - - -
16/01:20pm 32.3 SSW 5 5 1008.2 - - - - 10 - - - -
16/01:10pm 32.9 S 4 7 1008.3 - - - - 10 - - - -
16/01:00pm 32.1 SSW 4 6 1008.5 - - - - 10 - - - -
16/12:50pm 31.5 SSW 5 6 1008.6 - - - - 10 - - - -
16/12:40pm 32.0 SW 4 5 1008.7 - - - - 10 - - - -
16/12:30pm 33.2 SW 3 4 1008.9 - - - - 10 - - - -
16/12:20pm 33.2 SW 4 6 1009.1 - - - Partly cloudy 9 - - - -
16/12:10pm 32.5 SW 3 4 1009.3 - - - Partly cloudy 10 - - - -
16/12:00pm 31.6 SW 4 4 1009.6 - - - Partly cloudy 10 - - - -
16/11:50am 32.0 SW 3 4 1009.6 - - - - 10 - - - -
16/11:40am 31.4 SSW 4 6 1009.8 - - - - 10 - - - -
16/11:30am 30.6 S 5 6 1009.9 - - - - 10 - - - -
16/11:20am 30.5 S 5 7 1009.8 - - - - 10 - - - -
16/11:10am 30.3 S 4 5 1009.9 - - - Partly cloudy 10 - - - -
16/11:00am 30.4 S 3 4 1010.1 - - - Partly cloudy 10 - - - -
16/10:50am 30.9 S 4 4 1010.2 - - - Partly cloudy 10 - - - -
16/10:40am 30.1 S 4 5 1010.3 - - - Partly cloudy 10 - - - -
16/10:30am 30.2 S 5 7 1010.3 - - - - 10 - - - -
16/10:20am 30.4 S 5 6 1010.4 - - - - 10 - - - -
16/10:10am 30.3 S 5 6 1010.4 - - - - 10 - - - -
16/10:00am 30.4 SSE 7 7 1010.3 - - - - 10 - - - -
16/09:50am 30.8 SSE 7 9 1010.2 - - - - 10 - - - -
16/09:40am 31.6 S 8 9 1010.4 - - - - 10 - - - -
16/09:30am 31.7 SSE 8 9 1010.5 - - - Partly cloudy 10 - - - -
16/09:20am 32.5 S 8 10 1010.5 - - - Partly cloudy 10 - - - -
16/09:10am 32.3 S 7 10 1010.7 - - - Partly cloudy 10 - - - -
16/09:00am 31.4 S 8 9 1010.5 - - - - 10 - - - -
16/08:50am 31.5 S 9 11 1010.4 - - - Partly cloudy 10 - - - -
16/08:40am 31.2 S 8 8 1010.3 - - - Partly cloudy 10 - - - -
16/08:30am 31.1 S 7 11 1010.3 - - - Partly cloudy 10 - - - -
16/08:20am 30.8 S 5 11 1010.2 - - - Partly cloudy 10 - - - -
16/08:10am 30.1 SSW 6 6 1010.1 - - - Partly cloudy 10 - - - -
16/08:00am 29.8 SSW 6 8 1010.0 - - - Partly cloudy 10 - - - -
16/07:50am 29.9 SSW 3 5 1010.1 - - - Partly cloudy 10 - - - -
16/07:40am 29.9 SSW 2 3 1010.1 - - - Partly cloudy 10 - - - -
16/07:30am 30.1 SSW 2 3 1009.9 - - - Partly cloudy 10 - - - -
16/07:20am 29.4 S 2 2 1009.9 - - - Partly cloudy 10 - - - -
16/07:10am 28.9 SE 3 3 1010.0 - - - Partly cloudy 10 - - - -
16/07:00am 28.9 SE 4 4 1009.8 - - - Partly cloudy 10 - - - -
16/06:50am 28.8 ESE 4 5 1009.6 - - - Cloudy 10 - - - -
16/06:40am 28.7 ESE 5 6 1009.5 - - - Cloudy 10 - - - -
16/06:30am 28.6 SE 6 7 1009.4 - - - Partly cloudy 10 - - - -
16/06:20am 28.6 SE 7 9 1009.2 - - - Partly cloudy 10 - - - -
16/06:10am 28.4 SSE 7 8 1008.9 - - - Partly cloudy 10 - - - -
16/06:00am 28.1 SSE 8 8 1008.7 - - - Partly cloudy 10 - - - -
16/05:50am 27.7 SSE 8 9 1008.7 - - - Partly cloudy 10 - - - -
16/05:40am 27.0 S 7 6 1008.8 - - - Partly cloudy 10 - - - -
16/05:30am 26.9 SSW 5 8 1008.7 - - - Partly cloudy 10 - - - -
16/05:20am 27.2 W 6 5 1008.5 - - - Partly cloudy 10 - - - -
16/05:10am 28.1 NE 7 8 1008.5 - - - Partly cloudy 10 - - - -
16/05:00am 25.5 SE 17 16 1008.5 - - - Partly cloudy 2 - - - -
16/04:57am 25.9 SE 15 26 1008.2 - - - Partly cloudy 1 - - - -
16/04:50am 27.9 S 10 12 1008.2 - - - Partly cloudy 10 - - - -
16/04:40am 28.6 S 9 9 1008.0 - - - Partly cloudy 10 - - - -
16/04:30am 28.3 S 7 9 1007.9 - - - Partly cloudy 10 - - - -
16/04:20am 28.7 SSW 8 10 1007.7 - - - Partly cloudy 10 - - - -

Other Formats:

Comma delimited format used in spreadsheet applications
http://www.bom.gov.au/fwo/IDD60701/IDD60701.95100.axf

JavaScript Object Notation format (JSON) in row-major order
http://www.bom.gov.au/fwo/IDD60701/IDD60701.95100.json